Soapstone Mountain, North Carolina
Current Conditions -  °F | °C
As of 12:55 PM on Tuesday 21 Oct 2014 (Local Time) from K5W8 Reporting Station
Clear Clear  
Wind Chill: 70°   Ceiling: Unl
Heat Index: 70°   Visibility: 10mi
Dew Point: 49°   Wind: 5mph
Humidity: 46%   Direction: 270°W
Pressure: 29.9"   Gusts: NA
Location:  35.8007°N, 79.5885°W
Report Text: K5W8 211655Z AUTO 27004KT 10SM CLR 21/09 A2990 RMK AO2 T02120092
Loading
Personal Weather Stations






























Interactive Weather Map
Tropical Storm Tracking
New forecast layout! Learn more

10-Day Weather Forecast

Advertisements
Track Severe Weather on mobile